Terminal Aerodrome Forecast
Issued by NWS

Home | Current Version | Previous Version | Text Only | Print | Product List | Glossary On
Versions: 1 2 3 4 5 6 7 8 9 10 11 12 13 14 15 16 17 18 19 20 21 22 23 24 25 26 27 28 29 30 31 32 33 34 35 36 37 38 39 40 41 42 43
768
FTUS42 KRAH 311946 AAA
TAFINT
TAF AMD
KINT 311946Z 3120/0118 05008KT P6SM SCT035 BKN050
     FM010200 04004KT P6SM SCT015 BKN035
      TEMPO 0109/0112 5SM BR BKN012
     FM011300 06008KT P6SM SCT035 BKN050=

USA.gov is the U.S. government's official web portal to all federal, state and local government web resources and services.